Time;durP1;ratioP1;P1;durP2;ratioP2;P2;SDS_P1;SDS_P2;PMS_P1;PMS_P2;Temp;Humidity;BMP_temperature;BMP_pressure;BME280_temperature;BME280_humidity;BME280_pressure;Samples;Min_cycle;Max_cycle;Signal;HPM_P1;HPM_P2
2023/06/30 00:01:50;;;;;;;;;;;;;;;31.82;28.54;97895.78;5049282;28;19921;-94
2023/06/30 00:04:17;;;;;;;;;;;;;;;31.90;28.35;97894.13;5052797;28;19928;-94
2023/06/30 00:06:44;;;;;;;;;;;;;;;31.83;28.60;97892.50;5054664;28;19920;-94
2023/06/30 00:09:10;;;;;;;;;;;;;;;31.72;28.38;97886.59;5049747;28;19921;-94
2023/06/30 00:11:38;;;;;;;;;;;;;;;31.65;28.49;97884.16;5054788;28;19928;-93
2023/06/30 00:14:04;;;;;;;;;;;;;;;31.73;28.00;97887.38;5038942;28;19925;-93
2023/06/30 00:16:31;;;;;;;;;;;;;;;31.81;28.11;97889.34;5040112;28;19921;-94
2023/06/30 00:18:58;;;;;;;;;;;;;;;31.80;28.00;97878.47;5046579;28;19921;-94
2023/06/30 00:21:24;;;;;;;;;;;;;;;31.79;27.49;97886.19;5054057;28;20304;-94
2023/06/30 00:23:50;;;;;;;;;;;;;;;31.69;27.80;97869.78;5052442;28;19934;-94
2023/06/30 00:26:16;;;;;;;;;;;;;;;31.72;27.97;97869.56;5035731;28;20369;-94
2023/06/30 00:28:42;;;;;;;;;;;;;;;31.70;27.91;97869.28;5043472;28;19921;-94
2023/06/30 00:31:08;;;;;;;;;;;;;;;31.57;28.18;97868.81;5045963;28;19920;-93
2023/06/30 00:33:34;;;;;;;;;;;;;;;31.35;27.96;97868.38;5051366;28;20454;-94
2023/06/30 00:36:00;;;;;;;;;;;;;;;31.37;28.20;97868.69;5049528;28;19921;-94
2023/06/30 00:38:26;;;;;;;;;;;;;;;31.42;28.14;97865.97;5045770;28;20047;-94
2023/06/30 00:40:52;;;;;;;;;;;;;;;31.53;28.01;97868.22;5048811;28;19964;-93
2023/06/30 00:43:18;;;;;;;;;;;;;;;31.38;27.60;97871.03;5044573;28;19999;-94
2023/06/30 00:45:44;;;;;;;;;;;;;;;31.02;28.04;97873.44;5049225;28;19925;-93
2023/06/30 00:48:10;;;;;;;;;;;;;;;30.99;28.16;97860.25;5044037;28;19966;-93
2023/06/30 00:50:36;;;;;;;;;;;;;;;31.14;27.88;97861.03;5041684;28;19983;-93
2023/06/30 00:53:03;;;;;;;;;;;;;;;31.12;27.79;97860.75;5041901;28;20339;-93
2023/06/30 00:55:30;;;;;;;;;;;;;;;31.11;28.09;97862.03;5048944;28;19974;-94
2023/06/30 00:57:56;;;;;;;;;;;;;;;31.01;28.43;97852.81;5051784;28;19917;-93
2023/06/30 01:00:23;;;;;;;;;;;;;;;31.00;28.20;97850.47;5048484;28;19916;-96
2023/06/30 01:03:05;;;;;;;;;;;;;;;31.14;27.84;97852.53;5050862;28;19929;-95
2023/06/30 01:05:36;;;;;;;;;;;;;;;30.91;28.01;97847.72;5046567;28;19924;-96
2023/06/30 01:08:08;;;;;;;;;;;;;;;30.85;28.58;97839.09;5039086;28;19917;-94
2023/06/30 01:10:34;;;;;;;;;;;;;;;30.89;28.74;97841.75;5039382;28;19970;-93
2023/06/30 01:13:01;;;;;;;;;;;;;;;30.91;28.32;97840.00;5051430;28;20308;-93
2023/06/30 01:15:28;;;;;;;;;;;;;;;30.76;28.22;97834.25;5049350;28;20487;-92
2023/06/30 01:17:59;;;;;;;;;;;;;;;30.68;27.96;97840.78;5052735;28;19920;-93
2023/06/30 01:20:30;;;;;;;;;;;;;;;30.85;28.23;97832.63;5050761;28;20015;-93
2023/06/30 01:23:02;;;;;;;;;;;;;;;30.80;28.09;97839.75;5053361;28;19967;-93
2023/06/30 01:25:29;;;;;;;;;;;;;;;30.74;28.43;97830.34;5053194;28;19921;-93
2023/06/30 01:27:56;;;;;;;;;;;;;;;30.80;28.37;97833.28;5051220;28;19974;-94
2023/06/30 01:30:22;;;;;;;;;;;;;;;30.73;28.18;97828.78;5052659;28;19921;-93
2023/06/30 01:32:54;;;;;;;;;;;;;;;30.72;28.28;97832.88;5047669;28;19921;-92
2023/06/30 01:35:21;;;;;;;;;;;;;;;30.65;27.89;97831.22;5045060;28;19921;-92
2023/06/30 01:37:47;;;;;;;;;;;;;;;30.71;27.70;97834.16;5051664;28;20383;-94
2023/06/30 01:40:13;;;;;;;;;;;;;;;30.74;28.04;97830.34;5052883;28;19943;-92
2023/06/30 01:42:39;;;;;;;;;;;;;;;30.60;28.18;97828.25;5043702;28;19928;-93
2023/06/30 01:45:07;;;;;;;;;;;;;;;30.57;27.91;97838.50;5047980;28;19944;-92
2023/06/30 01:47:33;;;;;;;;;;;;;;;30.27;28.45;97827.56;5034730;28;20403;-92
2023/06/30 01:49:59;;;;;;;;;;;;;;;30.13;28.79;97823.38;5047786;28;19940;-92
2023/06/30 01:52:25;;;;;;;;;;;;;;;30.27;28.11;97831.13;5051644;28;19921;-93
2023/06/30 01:54:51;;;;;;;;;;;;;;;30.24;28.86;97825.69;5045292;28;20451;-92
2023/06/30 01:57:17;;;;;;;;;;;;;;;30.21;28.20;97830.25;5049716;28;19956;-92
2023/06/30 01:59:43;;;;;;;;;;;;;;;30.40;28.21;97828.09;5049786;28;19983;-92
2023/06/30 02:02:11;;;;;;;;;;;;;;;30.35;28.40;97825.94;5052651;28;19928;-92
2023/06/30 02:04:37;;;;;;;;;;;;;;;30.16;28.63;97825.25;5044540;28;19921;-91
2023/06/30 02:07:03;;;;;;;;;;;;;;;30.31;28.65;97826.09;5034469;28;19928;-94
2023/06/30 02:09:29;;;;;;;;;;;;;;;30.30;27.96;97829.41;5047670;28;20039;-92
2023/06/30 02:11:55;;;;;;;;;;;;;;;30.03;28.71;97827.53;5033235;28;19956;-93
2023/06/30 02:14:22;;;;;;;;;;;;;;;29.81;28.99;97839.13;5045680;28;19976;-92
2023/06/30 02:16:48;;;;;;;;;;;;;;;29.92;29.08;97824.47;5050138;28;19931;-91
2023/06/30 02:19:14;;;;;;;;;;;;;;;30.04;28.86;97823.44;5056473;28;19921;-92
2023/06/30 02:21:41;;;;;;;;;;;;;;;30.27;28.66;97825.47;5052400;28;19923;-91
2023/06/30 02:24:07;;;;;;;;;;;;;;;30.43;28.01;97821.47;5053128;28;19917;-91
2023/06/30 02:26:33;;;;;;;;;;;;;;;30.45;27.69;97816.09;5039074;28;20011;-91
2023/06/30 02:28:59;;;;;;;;;;;;;;;30.42;27.98;97819.91;5048011;28;19925;-92
2023/06/30 02:31:25;;;;;;;;;;;;;;;30.24;28.31;97820.81;5055682;28;19928;-91
2023/06/30 02:33:53;;;;;;;;;;;;;;;30.28;28.18;97818.56;5054078;28;19952;-92
2023/06/30 02:36:19;;;;;;;;;;;;;;;30.40;28.11;97816.78;5040121;28;19927;-91
2023/06/30 02:38:45;;;;;;;;;;;;;;;30.50;28.21;97821.13;5049665;28;19999;-91
2023/06/30 02:41:11;;;;;;;;;;;;;;;30.38;28.10;97825.78;5044654;28;19967;-91
2023/06/30 02:43:37;;;;;;;;;;;;;;;30.39;28.35;97821.66;5053293;28;20374;-92
2023/06/30 02:46:05;;;;;;;;;;;;;;;30.36;28.12;97821.84;5052634;28;20217;-92
2023/06/30 02:48:31;;;;;;;;;;;;;;;30.21;27.90;97816.09;5053916;28;20438;-92
2023/06/30 02:50:57;;;;;;;;;;;;;;;30.26;28.02;97814.63;5051295;28;19920;-91
2023/06/30 02:53:23;;;;;;;;;;;;;;;30.13;28.28;97826.19;5054533;28;19967;-91
2023/06/30 02:55:48;;;;;;;;;;;;;;;29.85;29.00;97819.16;5055789;28;20293;-92
2023/06/30 02:58:14;;;;;;;;;;;;;;;29.81;28.98;97818.53;5054959;28;19928;-92
2023/06/30 03:00:41;;;;;;;;;;;;;;;29.77;28.97;97815.88;5055386;28;19964;-91
2023/06/30 03:03:07;;;;;;;;;;;;;;;29.74;28.60;97821.66;5055709;28;19970;-92
2023/06/30 03:05:34;;;;;;;;;;;;;;;29.97;28.63;97824.56;5055858;28;19931;-91
2023/06/30 03:08:00;;;;;;;;;;;;;;;30.13;28.17;97829.03;5055346;28;19993;-91
2023/06/30 03:10:26;;;;;;;;;;;;;;;30.32;28.38;97827.66;5055687;28;19917;-90
2023/06/30 03:12:52;;;;;;;;;;;;;;;30.23;28.11;97819.22;5055614;28;19917;-91
2023/06/30 03:15:18;;;;;;;;;;;;;;;29.95;28.79;97827.09;5054903;28;19921;-91
2023/06/30 03:17:44;;;;;;;;;;;;;;;30.16;27.88;97825.25;5055465;28;19924;-92
2023/06/30 03:20:10;;;;;;;;;;;;;;;30.44;28.10;97826.66;5055524;28;19912;-90
2023/06/30 03:22:36;;;;;;;;;;;;;;;30.49;27.74;97822.38;5055366;28;20363;-91
2023/06/30 03:25:04;;;;;;;;;;;;;;;30.38;28.15;97820.09;5044719;28;19964;-90
2023/06/30 03:27:30;;;;;;;;;;;;;;;30.26;28.88;97818.25;5042177;28;20035;-91
2023/06/30 03:29:56;;;;;;;;;;;;;;;30.27;28.99;97816.22;5052752;28;20277;-91
2023/06/30 03:32:22;;;;;;;;;;;;;;;30.37;28.78;97815.69;5054135;28;20015;-91
2023/06/30 03:34:48;;;;;;;;;;;;;;;30.48;29.08;97820.81;5054592;28;19921;-91
2023/06/30 03:37:14;;;;;;;;;;;;;;;30.73;28.76;97820.28;5045631;28;19925;-91
2023/06/30 03:39:40;;;;;;;;;;;;;;;31.17;29.15;97814.69;5041431;28;19991;-91
2023/06/30 03:42:06;;;;;;;;;;;;;;;31.49;29.28;97816.53;5034999;28;19913;-91
2023/06/30 03:44:32;;;;;;;;;;;;;;;31.81;28.88;97815.50;5044643;28;19960;-89
2023/06/30 03:46:59;;;;;;;;;;;;;;;31.72;28.61;97818.47;5050836;28;20389;-91
2023/06/30 03:49:25;;;;;;;;;;;;;;;31.63;28.79;97812.91;5041232;28;19925;-91
2023/06/30 03:51:51;;;;;;;;;;;;;;;31.57;28.25;97817.72;5054621;28;19926;-90
2023/06/30 03:54:17;;;;;;;;;;;;;;;31.51;28.61;97807.56;5043453;28;19925;-90
2023/06/30 03:56:43;;;;;;;;;;;;;;;31.81;27.95;97806.22;5034814;28;19923;-90
2023/06/30 03:59:09;;;;;;;;;;;;;;;31.72;28.07;97807.09;5039893;28;19924;-91
2023/06/30 04:01:37;;;;;;;;;;;;;;;31.89;28.49;97804.53;5048675;28;20010;-90
2023/06/30 04:04:03;;;;;;;;;;;;;;;31.93;28.77;97807.94;5034908;28;19921;-91
2023/06/30 04:06:30;;;;;;;;;;;;;;;31.65;28.34;97801.84;5039288;28;19916;-91
2023/06/30 04:08:56;;;;;;;;;;;;;;;31.42;29.05;97803.53;5052708;28;19921;-91
2023/06/30 04:11:22;;;;;;;;;;;;;;;31.48;29.08;97797.97;5043012;28;20000;-92
2023/06/30 04:13:48;;;;;;;;;;;;;;;31.51;29.21;97799.81;5042327;28;20377;-91
2023/06/30 04:16:17;;;;;;;;;;;;;;;31.62;29.03;97799.22;5047135;28;19928;-91
2023/06/30 04:18:43;;;;;;;;;;;;;;;31.23;28.79;97805.00;5038492;28;20338;-90
2023/06/30 04:21:09;;;;;;;;;;;;;;;31.31;29.32;97802.56;5052149;28;19921;-89
2023/06/30 04:23:36;;;;;;;;;;;;;;;31.58;29.22;97805.06;5049106;28;19925;-92
2023/06/30 04:26:04;;;;;;;;;;;;;;;31.86;29.88;97805.50;5045549;28;20390;-90
2023/06/30 04:28:30;;;;;;;;;;;;;;;32.26;28.97;97805.59;5051801;28;20011;-91
2023/06/30 04:30:58;;;;;;;;;;;;;;;32.11;30.25;97804.09;5044884;28;19976;-92
2023/06/30 04:33:24;;;;;;;;;;;;;;;32.07;30.73;97807.13;5041411;28;19925;-93
2023/06/30 04:35:50;;;;;;;;;;;;;;;32.24;30.15;97807.34;5042893;28;20266;-90
2023/06/30 04:38:19;;;;;;;;;;;;;;;32.38;29.88;97800.81;5044792;28;19920;-94
2023/06/30 04:40:48;;;;;;;;;;;;;;;32.27;29.19;97800.69;5048222;28;19925;-92
2023/06/30 04:43:14;;;;;;;;;;;;;;;32.29;29.57;97806.66;5048798;28;19960;-93
2023/06/30 04:45:40;;;;;;;;;;;;;;;32.47;29.22;97804.31;5039921;28;19928;-92
2023/06/30 04:48:07;;;;;;;;;;;;;;;32.65;29.55;97800.44;5045352;28;19925;-96
2023/06/30 04:50:33;;;;;;;;;;;;;;;32.69;30.01;97800.97;5041067;28;19933;-93
2023/06/30 04:52:59;;;;;;;;;;;;;;;32.84;29.41;97798.81;5052301;28;19977;-96
2023/06/30 04:55:25;;;;;;;;;;;;;;;32.75;29.14;97799.75;5052283;28;19921;-94
2023/06/30 04:57:53;;;;;;;;;;;;;;;32.84;28.79;97798.81;5048358;28;19929;-92
2023/06/30 05:00:19;;;;;;;;;;;;;;;33.03;28.92;97797.22;5037099;28;20062;-94
2023/06/30 05:02:45;;;;;;;;;;;;;;;33.14;29.20;97799.41;5039664;28;20019;-94
2023/06/30 05:05:12;;;;;;;;;;;;;;;33.34;29.02;97800.13;5053527;28;19924;-93
2023/06/30 05:07:38;;;;;;;;;;;;;;;33.54;29.25;97793.56;5053963;28;19980;-93
2023/06/30 05:10:04;;;;;;;;;;;;;;;33.91;28.04;97793.59;5048388;28;19924;-90
2023/06/30 05:12:30;;;;;;;;;;;;;;;33.85;28.95;97795.59;5052712;28;19917;-92
2023/06/30 05:14:56;;;;;;;;;;;;;;;33.84;29.64;97794.81;5050251;28;19939;-91
2023/06/30 05:17:22;;;;;;;;;;;;;;;34.31;28.27;97796.16;5050652;28;19956;-92
2023/06/30 05:19:48;;;;;;;;;;;;;;;34.59;27.53;97801.97;5047661;28;19928;-92
2023/06/30 05:22:15;;;;;;;;;;;;;;;34.58;28.36;97804.09;5048592;28;20000;-93
2023/06/30 05:24:41;;;;;;;;;;;;;;;34.87;27.59;97802.09;5049342;28;19921;-94
2023/06/30 05:27:07;;;;;;;;;;;;;;;34.86;26.66;97800.53;5051494;28;19928;-94
2023/06/30 05:29:33;;;;;;;;;;;;;;;34.75;26.95;97796.34;5046413;28;19917;-95
2023/06/30 05:32:00;;;;;;;;;;;;;;;34.97;26.90;97794.84;5046632;28;19924;-94
2023/06/30 05:34:26;;;;;;;;;;;;;;;35.10;27.55;97798.03;5053309;28;19920;-94
2023/06/30 05:36:52;;;;;;;;;;;;;;;35.35;26.43;97791.28;5053969;28;19969;-94
2023/06/30 05:39:18;;;;;;;;;;;;;;;35.59;26.89;97790.81;5053441;28;19916;-95
2023/06/30 05:41:44;;;;;;;;;;;;;;;35.66;26.98;97790.28;5052973;28;20388;-94
2023/06/30 05:44:10;;;;;;;;;;;;;;;35.94;26.36;97786.06;5052303;28;19920;-94
2023/06/30 05:46:39;;;;;;;;;;;;;;;35.98;26.29;97780.91;5052760;28;20380;-94
2023/06/30 05:49:06;;;;;;;;;;;;;;;36.02;27.75;97784.25;5055287;28;19921;-93
2023/06/30 05:51:33;;;;;;;;;;;;;;;36.24;25.85;97782.63;5048330;28;19968;-94
2023/06/30 05:53:59;;;;;;;;;;;;;;;36.15;26.40;97791.50;5057075;28;19928;-94
2023/06/30 05:56:25;;;;;;;;;;;;;;;36.45;26.92;97789.59;5057283;28;19921;-93
2023/06/30 05:58:51;;;;;;;;;;;;;;;36.69;26.67;97787.66;5056525;28;20027;-94
2023/06/30 06:01:17;;;;;;;;;;;;;;;36.89;25.81;97788.59;5056682;28;20407;-93
2023/06/30 06:03:43;;;;;;;;;;;;;;;36.86;26.13;97784.72;5056872;28;19924;-94
2023/06/30 06:06:09;;;;;;;;;;;;;;;37.12;26.82;97785.09;5057750;28;20023;-93
2023/06/30 06:08:38;;;;;;;;;;;;;;;37.59;25.31;97787.88;5057650;28;19924;-92
2023/06/30 06:11:04;;;;;;;;;;;;;;;38.08;24.73;97785.84;5058724;28;20011;-92
2023/06/30 06:13:33;;;;;;;;;;;;;;;38.29;25.23;97779.13;5057233;28;19955;-92
2023/06/30 06:16:00;;;;;;;;;;;;;;;38.46;23.79;97778.94;5057364;28;20389;-92
2023/06/30 06:18:26;;;;;;;;;;;;;;;38.67;22.37;97779.97;5050249;28;19925;-92
2023/06/30 06:20:52;;;;;;;;;;;;;;;38.90;22.33;97774.69;5057280;28;19943;-91
2023/06/30 06:23:18;;;;;;;;;;;;;;;38.81;22.58;97780.84;5047562;28;19928;-92
2023/06/30 06:25:44;;;;;;;;;;;;;;;38.79;21.71;97775.63;5057310;28;20396;-91
2023/06/30 06:28:10;;;;;;;;;;;;;;;38.95;22.55;97774.63;5057528;28;19928;-92
2023/06/30 06:30:36;;;;;;;;;;;;;;;38.66;22.92;97782.03;5056442;28;19967;-92
2023/06/30 06:33:02;;;;;;;;;;;;;;;38.91;22.08;97782.00;5058222;28;19921;-92
2023/06/30 06:35:28;;;;;;;;;;;;;;;39.08;20.97;97777.56;5057423;28;19928;-92
2023/06/30 06:37:54;;;;;;;;;;;;;;;39.05;21.30;97787.25;5056804;28;19932;-92
2023/06/30 06:40:20;;;;;;;;;;;;;;;38.98;21.00;97782.13;5057630;28;19916;-94
2023/06/30 06:42:46;;;;;;;;;;;;;;;38.87;20.43;97776.56;5061091;28;19921;-93
2023/06/30 06:45:12;;;;;;;;;;;;;;;38.81;20.99;97772.22;5060445;28;19927;-93
2023/06/30 06:47:57;;;;;;;;;;;;;;;38.48;20.77;97776.28;5058069;28;19970;-92
2023/06/30 06:50:23;;;;;;;;;;;;;;;38.28;20.83;97777.56;5057875;28;19917;-91
2023/06/30 06:52:49;;;;;;;;;;;;;;;38.37;20.65;97782.19;5058252;28;19924;-94
2023/06/30 06:55:15;;;;;;;;;;;;;;;38.32;21.43;97775.19;5059375;28;19913;-93
2023/06/30 06:57:41;;;;;;;;;;;;;;;38.56;20.28;97775.13;5056662;28;19921;-92
2023/06/30 07:00:08;;;;;;;;;;;;;;;38.54;20.44;97772.03;5056795;28;20009;-92
2023/06/30 07:02:34;;;;;;;;;;;;;;;38.48;20.46;97771.34;5058950;28;19917;-92
2023/06/30 07:05:00;;;;;;;;;;;;;;;38.62;20.95;97772.19;5056765;28;19927;-93
2023/06/30 07:07:26;;;;;;;;;;;;;;;38.76;20.89;97775.94;5044117;28;20342;-92
2023/06/30 07:09:52;;;;;;;;;;;;;;;39.04;20.46;97774.22;5037568;28;20380;-93
2023/06/30 07:12:18;;;;;;;;;;;;;;;38.72;19.38;97773.38;5038444;28;19918;-92
2023/06/30 07:14:44;;;;;;;;;;;;;;;38.50;21.27;97768.69;5042288;28;19925;-92
2023/06/30 07:17:10;;;;;;;;;;;;;;;38.79;19.76;97769.13;5041150;28;19924;-93
2023/06/30 07:19:36;;;;;;;;;;;;;;;39.15;21.03;97767.56;5056181;28;20380;-93
2023/06/30 07:22:02;;;;;;;;;;;;;;;39.41;20.16;97764.78;5058662;28;20369;-91
2023/06/30 07:24:28;;;;;;;;;;;;;;;39.41;19.52;97767.66;5057788;28;20273;-92
2023/06/30 07:26:54;;;;;;;;;;;;;;;39.43;20.06;97770.75;5057265;28;19928;-93
2023/06/30 07:29:20;;;;;;;;;;;;;;;39.64;20.21;97768.06;5056117;28;19921;-93
2023/06/30 07:31:46;;;;;;;;;;;;;;;39.53;19.29;97769.03;5023240;28;19975;-94
2023/06/30 07:34:12;;;;;;;;;;;;;;;39.69;19.28;97768.00;5038839;28;19963;-94
2023/06/30 07:36:38;;;;;;;;;;;;;;;39.50;19.74;97758.63;5037441;28;19924;-93
2023/06/30 07:39:04;;;;;;;;;;;;;;;39.20;19.67;97755.22;5039136;28;19921;-91
2023/06/30 07:41:34;;;;;;;;;;;;;;;38.71;19.85;97751.75;5038575;28;19932;-92
2023/06/30 07:44:01;;;;;;;;;;;;;;;37.53;19.97;97752.78;5056193;28;19925;-91
2023/06/30 07:46:27;;;;;;;;;;;;;;;37.06;21.97;97749.97;5056153;28;19924;-93
2023/06/30 07:48:53;;;;;;;;;;;;;;;37.70;21.08;97754.16;5038490;28;19917;-94
2023/06/30 07:51:19;;;;;;;;;;;;;;;37.75;20.47;97752.56;5053550;28;19920;-93
2023/06/30 07:53:45;;;;;;;;;;;;;;;37.77;20.22;97747.06;5057255;28;19924;-93
2023/06/30 07:56:11;;;;;;;;;;;;;;;38.03;20.25;97744.47;5056272;28;20377;-90
2023/06/30 07:58:37;;;;;;;;;;;;;;;38.16;19.53;97738.06;5056603;28;19924;-91
2023/06/30 08:01:03;;;;;;;;;;;;;;;38.49;19.65;97738.44;5044303;28;19963;-93
2023/06/30 08:03:29;;;;;;;;;;;;;;;38.27;20.52;97738.75;5036361;28;20327;-92
2023/06/30 08:05:56;;;;;;;;;;;;;;;38.67;20.03;97734.78;5045503;28;20024;-91
2023/06/30 08:08:23;;;;;;;;;;;;;;;38.58;19.57;97735.19;5048913;28;19962;-91
2023/06/30 08:10:49;;;;;;;;;;;;;;;38.78;19.44;97735.97;5048103;28;19944;-93
2023/06/30 08:13:15;;;;;;;;;;;;;;;38.68;19.76;97736.34;5035168;28;19921;-93
2023/06/30 08:15:42;;;;;;;;;;;;;;;38.60;19.94;97734.66;5036777;28;19925;-91
2023/06/30 08:18:09;;;;;;;;;;;;;;;38.24;19.45;97736.13;5056263;28;19927;-93
2023/06/30 08:20:36;;;;;;;;;;;;;;;38.71;19.41;97728.78;5055497;28;20302;-91
2023/06/30 08:23:02;;;;;;;;;;;;;;;39.07;20.50;97730.03;5035958;28;19918;-92
2023/06/30 08:25:28;;;;;;;;;;;;;;;39.11;19.69;97735.47;5036144;28;20396;-93
2023/06/30 08:27:54;;;;;;;;;;;;;;;38.67;20.27;97734.78;5049572;28;19929;-91
2023/06/30 08:30:20;;;;;;;;;;;;;;;38.60;20.09;97749.00;5055218;28;20295;-87
2023/06/30 08:32:46;;;;;;;;;;;;;;;38.85;19.40;97732.50;5055417;28;20479;-93
2023/06/30 08:35:12;;;;;;;;;;;;;;;39.00;19.32;97735.66;5054264;28;19956;-90
2023/06/30 08:37:38;;;;;;;;;;;;;;;39.19;20.27;97724.91;5055365;28;19979;-92
2023/06/30 08:40:05;;;;;;;;;;;;;;;39.31;18.84;97720.53;5054412;28;19925;-90
2023/06/30 08:42:35;;;;;;;;;;;;;;;38.99;18.50;97736.97;5055389;28;19939;-93
2023/06/30 08:45:02;;;;;;;;;;;;;;;38.67;19.18;97731.16;5055657;28;19950;-92
2023/06/30 08:47:31;;;;;;;;;;;;;;;38.84;18.38;97725.22;5055104;28;20403;-91
2023/06/30 08:49:58;;;;;;;;;;;;;;;38.67;19.77;97719.69;5054329;28;19920;-91
2023/06/30 08:52:25;;;;;;;;;;;;;;;38.45;18.41;97717.09;5056423;28;20404;-91
2023/06/30 08:54:51;;;;;;;;;;;;;;;37.57;20.30;97713.91;5055250;28;19924;-92
2023/06/30 08:57:20;;;;;;;;;;;;;;;37.88;19.44;97712.59;5054868;28;19917;-91
2023/06/30 08:59:46;;;;;;;;;;;;;;;37.61;19.51;97717.25;5056491;28;20316;-90
2023/06/30 09:02:12;;;;;;;;;;;;;;;38.12;19.79;97717.50;5055677;28;19923;-91
2023/06/30 09:04:39;;;;;;;;;;;;;;;38.77;18.83;97709.38;5054266;28;19916;-93
2023/06/30 09:07:08;;;;;;;;;;;;;;;39.21;19.00;97697.19;5051741;28;19963;-93
2023/06/30 09:09:44;;;;;;;;;;;;;;;39.71;18.54;97704.97;5054015;28;20004;-94
2023/06/30 09:12:10;;;;;;;;;;;;;;;39.92;18.43;97699.31;5054815;28;20322;-94
2023/06/30 09:14:38;;;;;;;;;;;;;;;39.68;17.69;97706.06;5052241;28;19947;-93
2023/06/30 09:17:04;;;;;;;;;;;;;;;39.77;18.74;97699.13;5058056;28;19956;-93
2023/06/30 09:19:30;;;;;;;;;;;;;;;39.87;16.96;97697.34;5056585;28;19920;-94
2023/06/30 09:21:57;;;;;;;;;;;;;;;40.00;17.66;97697.34;5053593;28;19921;-94
2023/06/30 09:24:23;;;;;;;;;;;;;;;38.63;19.17;97694.16;5052725;28;19917;-92
2023/06/30 09:26:52;;;;;;;;;;;;;;;37.91;19.09;97697.16;5049462;28;19927;-93
2023/06/30 09:29:21;;;;;;;;;;;;;;;38.60;18.77;97705.94;5047432;28;19917;-94
2023/06/30 09:31:51;;;;;;;;;;;;;;;39.17;18.67;97695.97;5048239;28;20365;-92
2023/06/30 09:34:19;;;;;;;;;;;;;;;38.43;17.56;97697.56;5034118;28;21129;-90
2023/06/30 09:36:49;;;;;;;;;;;;;;;38.63;17.96;97691.28;5041265;28;19945;-92
2023/06/30 09:39:15;;;;;;;;;;;;;;;39.25;17.76;97691.16;5045929;28;20429;-92
2023/06/30 09:41:43;;;;;;;;;;;;;;;39.41;17.80;97700.78;5047469;28;19928;-91
2023/06/30 09:44:09;;;;;;;;;;;;;;;39.26;17.84;97701.28;5052560;28;19925;-93
2023/06/30 09:46:35;;;;;;;;;;;;;;;39.54;18.20;97704.47;5050753;28;20019;-94
2023/06/30 09:49:04;;;;;;;;;;;;;;;39.76;17.61;97686.84;5052254;28;19998;-95
2023/06/30 09:51:31;;;;;;;;;;;;;;;39.92;17.42;97685.72;5054668;28;20261;-94
2023/06/30 09:53:57;;;;;;;;;;;;;;;40.24;17.57;97687.72;5054779;28;19916;-92
2023/06/30 09:56:23;;;;;;;;;;;;;;;39.85;16.86;97685.63;5054943;28;19924;-93
2023/06/30 09:58:55;;;;;;;;;;;;;;;39.73;17.58;97699.44;5053424;28;19917;-94
2023/06/30 10:01:23;;;;;;;;;;;;;;;39.54;16.96;97689.34;5049048;28;19920;-92
2023/06/30 10:03:49;;;;;;;;;;;;;;;39.37;17.81;97681.00;5045035;28;19921;-91
2023/06/30 10:06:20;;;;;;;;;;;;;;;39.42;18.37;97674.38;5037729;28;19916;-94
2023/06/30 10:08:48;;;;;;;;;;;;;;;39.77;16.82;97676.88;5050616;28;19927;-93
2023/06/30 10:11:14;;;;;;;;;;;;;;;39.61;16.70;97677.97;5050621;28;19929;-93
2023/06/30 10:13:43;;;;;;;;;;;;;;;39.45;18.07;97681.91;5054564;28;19928;-92
2023/06/30 10:16:09;;;;;;;;;;;;;;;39.01;18.66;97679.75;5056634;28;19928;-90
2023/06/30 10:18:37;;;;;;;;;;;;;;;38.60;18.44;97674.38;5055495;28;19924;-93
2023/06/30 10:21:03;;;;;;;;;;;;;;;38.07;19.88;97676.09;5051101;28;20399;-92
2023/06/30 10:23:32;;;;;;;;;;;;;;;38.89;17.71;97673.44;5054959;28;20407;-92
2023/06/30 10:25:59;;;;;;;;;;;;;;;39.32;19.11;97670.38;5055252;28;20284;-93
2023/06/30 10:28:25;;;;;;;;;;;;;;;39.69;18.20;97673.13;5057107;28;19932;-93
2023/06/30 10:30:52;;;;;;;;;;;;;;;40.02;17.65;97665.94;5052304;28;20381;-93
2023/06/30 10:33:18;;;;;;;;;;;;;;;40.60;17.27;97663.66;5051467;28;20401;-93
2023/06/30 10:35:44;;;;;;;;;;;;;;;40.66;17.41;97664.28;5056812;28;19921;-95
2023/06/30 10:38:11;;;;;;;;;;;;;;;40.60;17.85;97654.22;5052670;28;19921;-94
2023/06/30 10:40:37;;;;;;;;;;;;;;;40.57;18.24;97663.97;5043579;28;19966;-94
2023/06/30 10:43:05;;;;;;;;;;;;;;;39.21;17.79;97662.72;5056174;28;19921;-95
2023/06/30 10:45:34;;;;;;;;;;;;;;;39.20;18.40;97655.44;5059192;28;19921;-94
2023/06/30 10:48:08;;;;;;;;;;;;;;;39.50;17.73;97643.66;5053073;28;20278;-93
2023/06/30 10:50:44;;;;;;;;;;;;;;;39.66;17.72;97644.69;5059957;28;19917;-94
2023/06/30 10:53:17;;;;;;;;;;;;;;;40.08;17.23;97639.94;5058988;28;19927;-94
2023/06/30 10:55:43;;;;;;;;;;;;;;;40.37;17.72;97641.66;5056045;28;19917;-92
2023/06/30 10:58:09;;;;;;;;;;;;;;;39.70;19.19;97650.91;5050913;28;20011;-91
2023/06/30 11:00:35;;;;;;;;;;;;;;;40.19;17.17;97645.47;5053236;28;19979;-92
2023/06/30 11:03:03;;;;;;;;;;;;;;;40.49;17.27;97635.13;5056441;28;19947;-92
2023/06/30 11:05:30;;;;;;;;;;;;;;;40.81;16.33;97642.75;5056782;28;20348;-93
2023/06/30 11:08:09;;;;;;;;;;;;;;;40.99;15.64;97648.31;5055834;28;19963;-93
2023/06/30 11:10:36;;;;;;;;;;;;;;;41.18;17.47;97640.25;5055857;28;19920;-92
2023/06/30 11:13:09;;;;;;;;;;;;;;;41.40;17.48;97643.91;5050420;28;19974;-92
2023/06/30 11:15:37;;;;;;;;;;;;;;;41.12;16.91;97635.97;5047573;28;19936;-93
2023/06/30 11:18:23;;;;;;;;;;;;;;;40.83;16.74;97637.97;5048013;28;19928;-92
2023/06/30 11:20:56;;;;;;;;;;;;;;;41.00;17.19;97632.59;5054380;28;19917;-93
2023/06/30 11:23:22;;;;;;;;;;;;;;;41.20;15.54;97634.69;5052241;28;19921;-92
2023/06/30 11:25:49;;;;;;;;;;;;;;;41.11;16.66;97631.53;5038750;28;19921;-91
2023/06/30 11:28:15;;;;;;;;;;;;;;;41.12;16.29;97630.97;5043456;28;19924;-91
2023/06/30 11:30:41;;;;;;;;;;;;;;;41.04;18.06;97635.13;5050665;28;19924;-92
2023/06/30 11:33:07;;;;;;;;;;;;;;;40.84;17.11;97635.88;5046769;28;19994;-92
2023/06/30 11:35:34;;;;;;;;;;;;;;;40.58;17.92;97636.75;5037316;28;20000;-92
2023/06/30 11:38:00;;;;;;;;;;;;;;;40.23;17.07;97626.53;5055094;28;19924;-90
2023/06/30 11:40:27;;;;;;;;;;;;;;;39.87;17.22;97631.19;5055297;28;19916;-92
2023/06/30 11:42:53;;;;;;;;;;;;;;;40.02;16.82;97631.44;5054756;28;19940;-92
2023/06/30 11:45:20;;;;;;;;;;;;;;;39.93;17.77;97632.63;5050964;28;20008;-92
2023/06/30 11:47:48;;;;;;;;;;;;;;;39.82;17.60;97635.72;5048825;28;19921;-92
2023/06/30 11:50:15;;;;;;;;;;;;;;;39.91;17.34;97631.66;5044235;28;19921;-92
2023/06/30 11:52:41;;;;;;;;;;;;;;;39.91;18.47;97626.66;5052944;28;20331;-92
2023/06/30 11:55:08;;;;;;;;;;;;;;;40.19;18.99;97628.97;5055577;28;19917;-92
2023/06/30 11:57:34;;;;;;;;;;;;;;;40.38;17.92;97628.78;5048971;28;19920;-92
2023/06/30 12:00:09;;;;;;;;;;;;;;;40.34;17.87;97622.63;5050832;28;20377;-92
2023/06/30 12:02:35;;;;;;;;;;;;;;;40.45;19.52;97634.69;5044249;28;19929;-93
2023/06/30 12:05:04;;;;;;;;;;;;;;;40.69;18.17;97630.72;5049926;28;19928;-93
2023/06/30 12:07:31;;;;;;;;;;;;;;;40.85;17.68;97626.69;5050348;28;20273;-92
2023/06/30 12:10:00;;;;;;;;;;;;;;;40.99;17.59;97616.63;5055533;28;19984;-93
2023/06/30 12:12:27;;;;;;;;;;;;;;;41.21;18.69;97621.84;5055517;28;20331;-94
2023/06/30 12:14:54;;;;;;;;;;;;;;;41.39;17.88;97627.94;5055551;28;19929;-93
2023/06/30 12:17:20;;;;;;;;;;;;;;;41.59;18.32;97618.50;5055447;28;19917;-93
2023/06/30 12:19:46;;;;;;;;;;;;;;;41.80;17.65;97614.22;5045358;28;19921;-93
2023/06/30 12:22:12;;;;;;;;;;;;;;;42.05;17.54;97610.88;5040269;28;19927;-93
2023/06/30 12:24:42;;;;;;;;;;;;;;;41.95;17.02;97607.75;5055125;28;19917;-92
2023/06/30 12:27:08;;;;;;;;;;;;;;;41.36;17.20;97611.78;5055274;28;20464;-90
2023/06/30 12:29:35;;;;;;;;;;;;;;;40.91;17.39;97609.28;5055588;28;20015;-93
2023/06/30 12:32:14;;;;;;;;;;;;;;;40.55;18.63;97603.31;5046164;28;19928;-93
2023/06/30 12:34:40;;;;;;;;;;;;;;;40.98;17.42;97600.72;5040675;28;19921;-93
2023/06/30 12:37:06;;;;;;;;;;;;;;;41.35;17.52;97602.38;5052541;28;20372;-94
2023/06/30 12:39:32;;;;;;;;;;;;;;;41.23;17.91;97601.88;5052815;28;19974;-93
2023/06/30 12:41:58;;;;;;;;;;;;;;;40.99;16.90;97595.69;5043001;28;19920;-94
2023/06/30 12:44:25;;;;;;;;;;;;;;;41.16;18.10;97602.59;5046440;28;20147;-91
2023/06/30 12:47:01;;;;;;;;;;;;;;;41.25;16.94;97602.06;5039107;28;19921;-93